Time;durP1;ratioP1;P1;durP2;ratioP2;P2;SDS_P1;SDS_P2;PMS_P1;PMS_P2;Temp;Humidity;BMP_temperature;BMP_pressure;BME280_temperature;BME280_humidity;BME280_pressure;Samples;Min_cycle;Max_cycle;Signal;HPM_P1;HPM_P2
2022/07/22 00:00:07;;;;;;;;;;;;;;;21.11;63.54;101876.00;1041030;28;618;-67
2022/07/22 00:00:58;;;;;;;;;;;;;;;21.11;63.65;101884.13;1041180;28;894;-66
2022/07/22 00:01:48;;;;;;;;;;;;;;;21.03;63.77;101883.09;1039766;28;1899;-67
2022/07/22 00:02:39;;;;;;;;;;;;;;;21.07;63.61;101882.69;1039448;28;1003;-67
2022/07/22 00:03:29;;;;;;;;;;;;;;;21.07;63.41;101879.97;1041175;28;650;-67
2022/07/22 00:04:20;;;;;;;;;;;;;;;21.06;63.44;101886.41;1038895;28;595;-67
2022/07/22 00:05:10;;;;;;;;;;;;;;;21.07;63.42;101879.97;1039587;28;698;-67
2022/07/22 00:06:01;;;;;;;;;;;;;;;21.09;63.47;101877.13;1039660;28;647;-67
2022/07/22 00:06:51;;;;;;;;;;;;;;;21.05;63.61;101883.81;1039799;28;716;-66
2022/07/22 00:07:42;;;;;;;;;;;;;;;21.07;63.44;101876.41;1039137;28;694;-66
2022/07/22 00:08:32;;;;;;;;;;;;;;;21.08;63.44;101878.97;1039667;28;634;-67
2022/07/22 00:09:22;;;;;;;;;;;;;;;21.09;63.16;101885.25;1039395;28;800;-66
2022/07/22 00:10:13;;;;;;;;;;;;;;;21.03;63.54;101878.53;1039524;28;701;-67
2022/07/22 00:11:03;;;;;;;;;;;;;;;21.07;63.39;101873.69;1039280;28;631;-67
2022/07/22 00:11:54;;;;;;;;;;;;;;;21.10;63.18;101876.13;1040972;28;617;-67
2022/07/22 00:12:44;;;;;;;;;;;;;;;21.09;63.14;101872.56;1039445;28;647;-66
2022/07/22 00:13:35;;;;;;;;;;;;;;;21.09;63.30;101872.56;1039453;28;691;-67
2022/07/22 00:14:25;;;;;;;;;;;;;;;21.09;63.29;101875.28;1041155;28;641;-67
2022/07/22 00:15:15;;;;;;;;;;;;;;;21.09;63.18;101877.97;1039371;28;639;-67
2022/07/22 00:16:06;;;;;;;;;;;;;;;21.11;63.33;101875.13;1037187;28;637;-66
2022/07/22 00:16:57;;;;;;;;;;;;;;;21.10;63.27;101871.56;1036513;28;666;-66
2022/07/22 00:17:48;;;;;;;;;;;;;;;21.10;63.20;101871.56;1036903;28;619;-66
2022/07/22 00:18:38;;;;;;;;;;;;;;;21.11;63.21;101870.56;1036258;28;730;-67
2022/07/22 00:19:28;;;;;;;;;;;;;;;21.11;63.33;101876.00;1037440;28;709;-67
2022/07/22 00:20:19;;;;;;;;;;;;;;;21.10;63.35;101873.41;1037141;28;670;-66
2022/07/22 00:21:10;;;;;;;;;;;;;;;21.10;63.30;101873.41;1036529;28;623;-67
2022/07/22 00:22:00;;;;;;;;;;;;;;;21.10;63.33;101863.44;1036579;28;670;-67
2022/07/22 00:22:50;;;;;;;;;;;;;;;21.10;63.08;101868.84;1036487;28;632;-67
2022/07/22 00:23:41;;;;;;;;;;;;;;;21.11;63.35;101870.56;1036493;28;690;-67
2022/07/22 00:24:31;;;;;;;;;;;;;;;21.16;63.52;101861.97;1029124;28;728;-67
2022/07/22 00:25:22;;;;;;;;;;;;;;;21.18;63.66;101864.56;1028364;28;697;-67
2022/07/22 00:26:12;;;;;;;;;;;;;;;21.22;63.40;101872.28;1028528;28;694;-67
2022/07/22 00:27:02;;;;;;;;;;;;;;;21.22;63.38;101866.00;1028342;28;637;-67
2022/07/22 00:27:53;;;;;;;;;;;;;;;21.23;62.76;101867.72;1028553;28;666;-67
2022/07/22 00:28:43;;;;;;;;;;;;;;;21.25;63.13;101865.72;1029559;28;634;-67
2022/07/22 00:29:34;;;;;;;;;;;;;;;21.23;63.26;101865.88;1028456;28;737;-67
2022/07/22 00:30:24;;;;;;;;;;;;;;;21.25;63.28;101868.44;1028480;28;651;-67
2022/07/22 00:31:15;;;;;;;;;;;;;;;21.22;63.19;101866.00;1028372;28;699;-67
2022/07/22 00:32:05;;;;;;;;;;;;;;;21.22;63.18;101868.72;1028460;28;655;-67
2022/07/22 00:32:56;;;;;;;;;;;;;;;21.22;63.01;101868.72;1028434;28;674;-67
2022/07/22 00:33:46;;;;;;;;;;;;;;;21.23;63.18;101873.16;1029503;28;647;-67
2022/07/22 00:34:37;;;;;;;;;;;;;;;21.20;63.38;101874.28;1028383;28;600;-67
2022/07/22 00:35:27;;;;;;;;;;;;;;;21.15;63.16;101865.69;1028478;28;655;-67
2022/07/22 00:36:18;;;;;;;;;;;;;;;21.17;63.30;101873.69;1028422;28;627;-67
2022/07/22 00:37:09;;;;;;;;;;;;;;;21.17;63.18;101871.81;1028511;28;619;-67
2022/07/22 00:37:59;;;;;;;;;;;;;;;21.18;63.06;101876.25;1028455;28;616;-67
2022/07/22 00:38:50;;;;;;;;;;;;;;;21.18;63.29;101865.41;1028504;28;632;-67
2022/07/22 00:39:40;;;;;;;;;;;;;;;21.20;63.13;101868.00;1028677;28;1204;-67
2022/07/22 00:40:31;;;;;;;;;;;;;;;21.15;62.97;101866.53;1029922;28;1129;-67
2022/07/22 00:41:21;;;;;;;;;;;;;;;21.16;63.15;101867.41;1032457;28;706;-67
2022/07/22 00:42:12;;;;;;;;;;;;;;;21.17;63.14;101869.13;1029050;28;642;-67
2022/07/22 00:43:02;;;;;;;;;;;;;;;21.18;63.01;101859.13;1029077;28;701;-67
2022/07/22 00:43:53;;;;;;;;;;;;;;;21.18;63.02;101862.69;1028426;28;682;-67
2022/07/22 00:44:43;;;;;;;;;;;;;;;21.19;63.02;101860.84;1028080;28;643;-67
2022/07/22 00:45:34;;;;;;;;;;;;;;;21.19;63.17;101860.84;1028977;28;611;-67
2022/07/22 00:46:24;;;;;;;;;;;;;;;21.21;63.20;101858.88;1029113;28;673;-67
2022/07/22 00:47:14;;;;;;;;;;;;;;;21.21;62.93;101854.31;1028979;28;670;-67
2022/07/22 00:48:05;;;;;;;;;;;;;;;21.21;62.91;101859.75;1028942;28;603;-67
2022/07/22 00:48:55;;;;;;;;;;;;;;;21.19;62.77;101855.41;1028024;28;648;-66
2022/07/22 00:49:46;;;;;;;;;;;;;;;21.21;62.86;101859.75;1027994;28;631;-68
2022/07/22 00:50:36;;;;;;;;;;;;;;;21.20;63.00;101855.31;1028982;28;643;-67
2022/07/22 00:51:27;;;;;;;;;;;;;;;21.21;62.97;101854.31;1031322;28;611;-67
2022/07/22 00:52:18;;;;;;;;;;;;;;;21.23;62.85;101859.59;1031759;28;674;-67
2022/07/22 00:53:08;;;;;;;;;;;;;;;21.23;62.81;101854.16;1032021;28;628;-66
2022/07/22 00:53:59;;;;;;;;;;;;;;;21.23;62.77;101856.88;1031840;28;804;-67
2022/07/22 00:54:49;;;;;;;;;;;;;;;21.24;62.89;101858.59;1028757;28;651;-67
2022/07/22 00:55:40;;;;;;;;;;;;;;;21.23;62.77;101856.88;1027571;28;631;-67
2022/07/22 00:56:31;;;;;;;;;;;;;;;21.23;62.75;101857.75;1031747;28;663;-67
2022/07/22 00:57:21;;;;;;;;;;;;;;;21.23;62.88;101856.88;1028658;28;686;-67
2022/07/22 00:58:11;;;;;;;;;;;;;;;21.24;62.68;101856.75;1027995;28;651;-66
2022/07/22 00:59:02;;;;;;;;;;;;;;;21.25;62.91;101850.31;1031874;28;687;-67
2022/07/22 00:59:52;;;;;;;;;;;;;;;21.25;62.70;101854.88;1032492;28;710;-67
2022/07/22 01:00:43;;;;;;;;;;;;;;;21.24;62.77;101848.59;1032388;28;694;-66
2022/07/22 01:01:33;;;;;;;;;;;;;;;21.24;62.95;101851.31;1032419;28;1972;-67
2022/07/22 01:02:24;;;;;;;;;;;;;;;21.24;62.75;101850.47;1028557;28;674;-67
2022/07/22 01:03:16;;;;;;;;;;;;;;;21.24;62.82;101859.44;1028255;28;655;-67
2022/07/22 01:04:06;;;;;;;;;;;;;;;21.25;62.49;101846.75;1032035;28;635;-67
2022/07/22 01:04:57;;;;;;;;;;;;;;;21.25;62.59;101854.88;1032424;28;690;-67
2022/07/22 01:05:47;;;;;;;;;;;;;;;21.23;62.71;101851.47;1031667;28;624;-67
2022/07/22 01:06:38;;;;;;;;;;;;;;;21.24;62.53;101854.03;1031788;28;680;-67
2022/07/22 01:07:28;;;;;;;;;;;;;;;21.25;62.85;101849.47;1032463;28;721;-66
2022/07/22 01:08:19;;;;;;;;;;;;;;;21.26;62.67;101848.47;1032388;28;662;-67
2022/07/22 01:09:09;;;;;;;;;;;;;;;21.25;62.82;101854.88;1032511;28;651;-66
2022/07/22 01:10:00;;;;;;;;;;;;;;;21.26;62.80;101851.19;1031862;28;636;-66
2022/07/22 01:10:50;;;;;;;;;;;;;;;21.25;62.33;101854.88;1032364;28;682;-67
2022/07/22 01:11:40;;;;;;;;;;;;;;;21.23;62.69;101857.75;1032340;28;766;-66
2022/07/22 01:12:31;;;;;;;;;;;;;;;21.24;62.78;101847.75;1032403;28;611;-66
2022/07/22 01:13:22;;;;;;;;;;;;;;;21.24;62.79;101861.31;1032379;28;637;-66
2022/07/22 01:14:12;;;;;;;;;;;;;;;21.24;62.39;101858.59;1032506;28;678;-67
2022/07/22 01:15:03;;;;;;;;;;;;;;;21.24;62.71;101854.03;1031662;28;623;-67
2022/07/22 01:15:53;;;;;;;;;;;;;;;21.22;62.81;101852.47;1030117;28;1421;-67
2022/07/22 01:16:44;;;;;;;;;;;;;;;21.22;62.52;101853.31;1029700;28;620;-67
2022/07/22 01:17:34;;;;;;;;;;;;;;;21.21;62.74;101853.47;1029674;28;655;-66
2022/07/22 01:18:25;;;;;;;;;;;;;;;21.19;62.87;101860.84;1029755;28;670;-67
2022/07/22 01:19:15;;;;;;;;;;;;;;;21.14;62.52;101856.69;1030188;28;729;-67
2022/07/22 01:20:06;;;;;;;;;;;;;;;21.17;62.75;101858.28;1025877;28;639;-67
2022/07/22 01:20:56;;;;;;;;;;;;;;;21.17;62.77;101860.97;1025823;29;742;-66
2022/07/22 01:21:47;;;;;;;;;;;;;;;21.19;63.09;101855.41;1029914;28;1951;-67
2022/07/22 01:22:37;;;;;;;;;;;;;;;21.18;62.75;101856.41;1029616;28;631;-67
2022/07/22 01:23:28;;;;;;;;;;;;;;;21.17;62.81;101857.41;1030257;28;619;-67
2022/07/22 01:24:18;;;;;;;;;;;;;;;21.18;62.86;101853.72;1030222;28;674;-67
2022/07/22 01:25:09;;;;;;;;;;;;;;;21.18;62.64;101851.00;1030303;28;678;-67
2022/07/22 01:25:59;;;;;;;;;;;;;;;21.20;62.90;101854.47;1030261;28;686;-67
2022/07/22 01:26:50;;;;;;;;;;;;;;;21.21;62.78;101853.47;1030967;28;626;-67
2022/07/22 01:27:40;;;;;;;;;;;;;;;21.21;62.89;101842.63;1033513;28;681;-66
2022/07/22 01:28:31;;;;;;;;;;;;;;;21.22;62.93;101849.75;1033100;28;600;-67
2022/07/22 01:29:21;;;;;;;;;;;;;;;21.23;62.87;101848.75;1033275;28;666;-67
2022/07/22 01:30:11;;;;;;;;;;;;;;;21.23;62.71;101846.03;1033083;28;671;-67
2022/07/22 01:31:02;;;;;;;;;;;;;;;21.23;62.91;101848.75;1033212;28;678;-67
2022/07/22 01:31:52;;;;;;;;;;;;;;;21.23;62.65;101846.03;1033673;28;689;-67
2022/07/22 01:32:43;;;;;;;;;;;;;;;21.22;62.70;101849.75;1033146;28;602;-67
2022/07/22 01:33:33;;;;;;;;;;;;;;;21.21;62.87;101845.31;1033678;28;722;-67
2022/07/22 01:34:24;;;;;;;;;;;;;;;21.21;62.73;101848.03;1033144;28;689;-67
2022/07/22 01:35:14;;;;;;;;;;;;;;;21.22;62.64;101842.47;1033278;28;658;-67
2022/07/22 01:36:04;;;;;;;;;;;;;;;21.25;63.05;101844.03;1033002;28;721;-67
2022/07/22 01:36:55;;;;;;;;;;;;;;;21.24;62.83;101847.75;1033096;28;625;-67
2022/07/22 01:37:46;;;;;;;;;;;;;;;21.23;62.72;101849.59;1033572;28;681;-67
2022/07/22 01:38:36;;;;;;;;;;;;;;;21.22;62.74;101849.75;1033123;28;717;-67
2022/07/22 01:39:27;;;;;;;;;;;;;;;21.22;62.64;101849.75;1033685;28;638;-67
2022/07/22 01:40:17;;;;;;;;;;;;;;;21.22;62.78;101842.47;1033668;28;642;-67
2022/07/22 01:41:07;;;;;;;;;;;;;;;21.23;62.67;101848.75;1033239;28;686;-67
2022/07/22 01:41:58;;;;;;;;;;;;;;;21.22;62.50;101847.91;1033061;28;667;-67
2022/07/22 01:42:48;;;;;;;;;;;;;;;21.22;62.52;101845.19;1033075;28;640;-66
2022/07/22 01:43:39;;;;;;;;;;;;;;;21.21;62.48;101843.47;1029907;28;607;-67
2022/07/22 01:44:29;;;;;;;;;;;;;;;21.23;62.63;101848.75;1030440;28;651;-67
2022/07/22 01:45:20;;;;;;;;;;;;;;;21.25;62.62;101849.47;1033714;28;698;-67
2022/07/22 01:46:10;;;;;;;;;;;;;;;21.25;62.58;101839.47;1033635;28;657;-67
2022/07/22 01:47:01;;;;;;;;;;;;;;;21.25;62.70;101839.47;1033647;28;619;-67
2022/07/22 01:47:51;;;;;;;;;;;;;;;21.27;62.48;101836.63;1033140;28;694;-67
2022/07/22 01:48:41;;;;;;;;;;;;;;;21.27;62.54;101839.34;1033629;28;641;-67
2022/07/22 01:49:33;;;;;;;;;;;;;;;21.26;62.62;101837.63;1032623;28;631;-67
2022/07/22 01:50:23;;;;;;;;;;;;;;;21.26;62.53;101832.19;1034719;28;842;-67
2022/07/22 01:51:13;;;;;;;;;;;;;;;21.25;62.59;101834.06;1033032;28;616;-67
2022/07/22 01:52:04;;;;;;;;;;;;;;;21.26;62.60;101834.91;1032490;28;743;-67
2022/07/22 01:52:54;;;;;;;;;;;;;;;21.24;62.62;101837.75;1032654;28;650;-67
2022/07/22 01:53:45;;;;;;;;;;;;;;;21.22;62.58;101831.63;1032398;28;686;-67
2022/07/22 01:54:35;;;;;;;;;;;;;;;21.23;62.63;101836.06;1032473;28;718;-67
2022/07/22 01:55:26;;;;;;;;;;;;;;;21.22;62.45;101845.19;1032517;28;620;-67
2022/07/22 01:56:17;;;;;;;;;;;;;;;21.23;62.63;101843.31;1033674;28;768;-67
2022/07/22 01:57:07;;;;;;;;;;;;;;;21.24;62.65;101845.03;1033621;28;737;-66
2022/07/22 01:57:58;;;;;;;;;;;;;;;21.26;62.60;101840.34;1032998;28;658;-67
2022/07/22 01:58:48;;;;;;;;;;;;;;;21.26;62.68;101845.75;1032331;28;612;-66
2022/07/22 01:59:38;;;;;;;;;;;;;;;21.24;62.50;101847.75;1032538;28;701;-66
2022/07/22 02:00:29;;;;;;;;;;;;;;;21.25;62.63;101847.59;1032410;28;619;-66
2022/07/22 02:01:19;;;;;;;;;;;;;;;21.23;62.66;101849.59;1032651;28;662;-67
2022/07/22 02:02:10;;;;;;;;;;;;;;;21.24;62.44;101845.03;1032448;28;707;-66
2022/07/22 02:03:00;;;;;;;;;;;;;;;21.24;62.43;101836.91;1032628;28;663;-66
2022/07/22 02:03:51;;;;;;;;;;;;;;;21.21;62.64;101843.47;1033441;28;678;-66
2022/07/22 02:04:41;;;;;;;;;;;;;;;21.23;62.71;101849.59;1033175;28;674;-66
2022/07/22 02:05:31;;;;;;;;;;;;;;;21.22;62.37;101842.47;1033143;28;650;-66
2022/07/22 02:06:22;;;;;;;;;;;;;;;21.23;62.53;101843.31;1032363;28;608;-66
2022/07/22 02:07:12;;;;;;;;;;;;;;;21.22;62.43;101842.47;1032501;28;698;-66
2022/07/22 02:08:03;;;;;;;;;;;;;;;21.22;62.40;101844.31;1032925;28;713;-66
2022/07/22 02:08:53;;;;;;;;;;;;;;;21.22;62.42;101838.91;1032379;28;632;-66
2022/07/22 02:09:43;;;;;;;;;;;;;;;21.21;62.52;101846.19;1033589;28;686;-67
2022/07/22 02:10:34;;;;;;;;;;;;;;;21.20;62.55;101846.31;1032351;28;630;-66
2022/07/22 02:11:25;;;;;;;;;;;;;;;21.20;62.42;101840.91;1033469;28;644;-66
2022/07/22 02:12:15;;;;;;;;;;;;;;;21.19;62.48;101845.44;1032465;28;679;-66
2022/07/22 02:13:05;;;;;;;;;;;;;;;21.20;62.67;101843.59;1032486;28;695;-66
2022/07/22 02:13:56;;;;;;;;;;;;;;;21.20;62.53;101841.75;1032365;28;674;-66
2022/07/22 02:14:47;;;;;;;;;;;;;;;21.19;62.63;101842.72;1033457;28;631;-66
2022/07/22 02:15:37;;;;;;;;;;;;;;;21.19;62.48;101840.00;1034380;28;1387;-66
2022/07/22 02:16:28;;;;;;;;;;;;;;;21.19;62.59;101842.72;1036933;28;611;-66
2022/07/22 02:17:18;;;;;;;;;;;;;;;21.19;62.50;101836.44;1037534;28;662;-66
2022/07/22 02:18:08;;;;;;;;;;;;;;;21.21;62.48;101837.19;1036629;28;691;-67
2022/07/22 02:18:59;;;;;;;;;;;;;;;21.22;62.53;101828.91;1037572;28;678;-66
2022/07/22 02:19:49;;;;;;;;;;;;;;;21.21;62.34;101831.78;1037441;28;824;-66
2022/07/22 02:20:40;;;;;;;;;;;;;;;21.20;62.40;101830.06;1033175;28;674;-66
2022/07/22 02:21:30;;;;;;;;;;;;;;;21.19;62.60;101822.88;1033054;28;1890;-66
2022/07/22 02:22:21;;;;;;;;;;;;;;;21.20;62.39;101819.22;1037079;28;631;-66
2022/07/22 02:23:11;;;;;;;;;;;;;;;21.19;62.40;101828.31;1036985;28;730;-66
2022/07/22 02:24:01;;;;;;;;;;;;;;;21.20;62.75;101824.63;1036804;28;1149;-66
2022/07/22 02:24:52;;;;;;;;;;;;;;;21.20;62.29;101824.63;1036365;28;619;-66
2022/07/22 02:25:42;;;;;;;;;;;;;;;21.19;62.52;101829.16;1037507;28;677;-66
2022/07/22 02:26:33;;;;;;;;;;;;;;;21.20;62.40;101824.63;1036323;28;620;-66
2022/07/22 02:27:23;;;;;;;;;;;;;;;21.20;62.26;101820.06;1036460;28;642;-66
2022/07/22 02:28:14;;;;;;;;;;;;;;;21.22;62.44;101817.22;1036900;28;670;-67
2022/07/22 02:29:04;;;;;;;;;;;;;;;21.23;62.69;101817.06;1037040;28;722;-66
2022/07/22 02:29:55;;;;;;;;;;;;;;;21.24;62.43;101815.22;1036790;28;729;-66
2022/07/22 02:30:45;;;;;;;;;;;;;;;21.24;62.37;101820.63;1036395;28;643;-66
2022/07/22 02:31:35;;;;;;;;;;;;;;;21.25;62.19;101819.66;1037003;28;708;-67
2022/07/22 02:32:26;;;;;;;;;;;;;;;21.24;62.31;101824.22;1036339;28;683;-66
2022/07/22 02:33:17;;;;;;;;;;;;;;;21.24;62.24;101815.22;1037524;28;733;-66
2022/07/22 02:34:07;;;;;;;;;;;;;;;21.25;62.42;101819.66;1036860;28;622;-66
2022/07/22 02:34:57;;;;;;;;;;;;;;;21.26;62.50;101815.94;1036948;28;650;-67
2022/07/22 02:35:48;;;;;;;;;;;;;;;21.30;62.45;101814.66;1036340;28;612;-66
2022/07/22 02:36:38;;;;;;;;;;;;;;;21.30;62.36;101818.22;1036502;28;697;-66
2022/07/22 02:37:29;;;;;;;;;;;;;;;21.31;62.46;101821.78;1033945;28;615;-67
2022/07/22 02:38:19;;;;;;;;;;;;;;;21.30;62.36;101814.66;1036663;28;659;-66
2022/07/22 02:39:10;;;;;;;;;;;;;;;21.31;62.23;101819.06;1036361;28;757;-66
2022/07/22 02:40:00;;;;;;;;;;;;;;;21.30;62.10;101820.06;1038130;28;689;-66
2022/07/22 02:40:51;;;;;;;;;;;;;;;21.29;62.04;101823.78;1038064;28;642;-67
2022/07/22 02:41:41;;;;;;;;;;;;;;;21.29;62.00;101819.22;1037993;28;1906;-67
2022/07/22 02:42:32;;;;;;;;;;;;;;;21.31;61.97;101819.06;1036954;28;610;-67
2022/07/22 02:43:22;;;;;;;;;;;;;;;21.31;62.13;101819.06;1036309;28;698;-66
2022/07/22 02:44:12;;;;;;;;;;;;;;;21.31;62.04;101819.94;1032636;28;650;-67
2022/07/22 02:45:03;;;;;;;;;;;;;;;21.29;62.06;101813.78;1033083;28;653;-67
2022/07/22 02:45:53;;;;;;;;;;;;;;;21.31;61.90;101822.63;1037340;28;740;-67
2022/07/22 02:46:44;;;;;;;;;;;;;;;21.31;62.05;101822.63;1036087;28;706;-66
2022/07/22 02:47:34;;;;;;;;;;;;;;;21.30;62.14;101818.22;1036468;28;678;-66
2022/07/22 02:48:25;;;;;;;;;;;;;;;21.31;62.01;101821.78;1036497;28;627;-67
2022/07/22 02:49:15;;;;;;;;;;;;;;;21.31;61.91;101821.78;1036941;28;612;-67
2022/07/22 02:50:05;;;;;;;;;;;;;;;21.33;61.90;101825.19;1036961;28;564;-67
2022/07/22 02:50:56;;;;;;;;;;;;;;;21.33;61.96;101822.47;1036668;28;1403;-66
2022/07/22 02:51:46;;;;;;;;;;;;;;;21.32;61.89;101823.47;1036060;28;659;-67
2022/07/22 02:52:37;;;;;;;;;;;;;;;21.32;62.06;101818.03;1036344;28;686;-66
2022/07/22 02:53:27;;;;;;;;;;;;;;;21.33;61.64;101825.19;1036433;28;643;-67
2022/07/22 02:54:18;;;;;;;;;;;;;;;21.33;61.70;101820.59;1035716;28;647;-66
2022/07/22 02:55:08;;;;;;;;;;;;;;;21.34;61.84;101818.75;1036908;28;698;-67
2022/07/22 02:55:59;;;;;;;;;;;;;;;21.32;61.85;101823.47;1036689;28;1143;-67
2022/07/22 02:56:49;;;;;;;;;;;;;;;21.34;61.76;101821.47;1036884;28;691;-67
2022/07/22 02:57:40;;;;;;;;;;;;;;;21.34;62.02;101816.91;1035934;28;643;-66
2022/07/22 02:58:30;;;;;;;;;;;;;;;21.36;61.95;101827.59;1036363;28;622;-67
2022/07/22 02:59:20;;;;;;;;;;;;;;;21.36;62.01;101828.47;1035792;28;631;-67
2022/07/22 03:00:11;;;;;;;;;;;;;;;21.35;61.90;101826.75;1036187;28;595;-67
2022/07/22 03:01:02;;;;;;;;;;;;;;;21.36;61.92;101825.75;1036670;28;515;-67
2022/07/22 03:01:52;;;;;;;;;;;;;;;21.37;61.83;101832.03;1035129;28;1890;-67
2022/07/22 03:02:42;;;;;;;;;;;;;;;21.36;61.85;101820.31;1036318;28;757;-67
2022/07/22 03:03:33;;;;;;;;;;;;;;;21.37;61.81;101822.03;1036216;28;611;-67
2022/07/22 03:04:23;;;;;;;;;;;;;;;21.37;61.94;101829.31;1035865;28;915;-66
2022/07/22 03:05:14;;;;;;;;;;;;;;;21.38;61.78;101822.91;1036759;28;603;-67
2022/07/22 03:06:04;;;;;;;;;;;;;;;21.38;61.68;101836.44;1036799;28;724;-67
2022/07/22 03:06:55;;;;;;;;;;;;;;;21.36;61.89;101830.31;1036754;28;670;-67
2022/07/22 03:07:45;;;;;;;;;;;;;;;21.34;61.84;101827.75;1036259;28;603;-66
2022/07/22 03:08:36;;;;;;;;;;;;;;;21.34;61.89;101826.88;1036411;28;662;-66
2022/07/22 03:09:26;;;;;;;;;;;;;;;21.34;61.62;101833.16;1035599;28;674;-66
2022/07/22 03:10:17;;;;;;;;;;;;;;;21.35;61.67;101834.03;1035998;28;662;-67
2022/07/22 03:11:07;;;;;;;;;;;;;;;21.35;61.61;101828.59;1036782;28;670;-67
2022/07/22 03:11:57;;;;;;;;;;;;;;;21.34;61.81;101824.19;1036782;28;607;-66
2022/07/22 03:12:48;;;;;;;;;;;;;;;21.34;61.76;101830.47;1035921;28;627;-67
2022/07/22 03:13:38;;;;;;;;;;;;;;;21.34;61.68;101821.47;1036243;28;713;-66
2022/07/22 03:14:29;;;;;;;;;;;;;;;21.35;61.71;101820.47;1035562;28;687;-67
2022/07/22 03:15:19;;;;;;;;;;;;;;;21.33;61.58;101831.47;1036244;28;623;-67
2022/07/22 03:16:10;;;;;;;;;;;;;;;21.32;61.65;101826.19;1032805;28;686;-67
2022/07/22 03:17:00;;;;;;;;;;;;;;;21.34;61.49;101821.47;1033815;28;619;-66
2022/07/22 03:17:50;;;;;;;;;;;;;;;21.34;61.61;101826.88;1029701;28;639;-66
2022/07/22 03:18:41;;;;;;;;;;;;;;;21.33;61.64;101830.59;1032185;28;627;-66
2022/07/22 03:19:31;;;;;;;;;;;;;;;21.33;61.91;101827.88;1033876;28;638;-66
2022/07/22 03:20:22;;;;;;;;;;;;;;;21.32;61.70;101828.88;1033920;28;618;-66
2022/07/22 03:21:12;;;;;;;;;;;;;;;21.31;61.60;101836.19;1029003;28;639;-66
2022/07/22 03:22:03;;;;;;;;;;;;;;;21.31;61.57;101832.63;1029338;28;650;-66
2022/07/22 03:22:53;;;;;;;;;;;;;;;21.30;61.51;101833.63;1030285;28;651;-66
2022/07/22 03:23:43;;;;;;;;;;;;;;;21.29;61.48;101829.19;1031995;28;643;-66
2022/07/22 03:24:34;;;;;;;;;;;;;;;21.28;61.80;101835.63;1033906;28;676;-66
2022/07/22 03:25:24;;;;;;;;;;;;;;;21.27;61.48;101825.78;1032798;28;638;-66
2022/07/22 03:26:15;;;;;;;;;;;;;;;21.26;61.68;101824.91;1032563;28;646;-66
2022/07/22 03:27:05;;;;;;;;;;;;;;;21.25;61.56;101827.78;1028645;28;722;-67
2022/07/22 03:27:55;;;;;;;;;;;;;;;21.27;61.42;101831.19;1033192;28;619;-66
2022/07/22 03:28:46;;;;;;;;;;;;;;;21.27;61.69;101823.06;1033382;28;623;-66
2022/07/22 03:29:36;;;;;;;;;;;;;;;21.27;61.54;101829.34;1033369;28;744;-66
2022/07/22 03:30:27;;;;;;;;;;;;;;;21.28;61.63;101827.50;1032601;28;717;-66
2022/07/22 03:31:17;;;;;;;;;;;;;;;21.27;61.45;101832.06;1032750;28;638;-67
2022/07/22 03:32:08;;;;;;;;;;;;;;;21.27;61.55;101831.19;1033800;28;714;-66
2022/07/22 03:32:58;;;;;;;;;;;;;;;21.27;61.36;101831.19;1029728;28;634;-66
2022/07/22 03:33:48;;;;;;;;;;;;;;;21.27;61.40;101825.78;1033536;28;687;-66
2022/07/22 03:34:39;;;;;;;;;;;;;;;21.27;61.32;101821.22;1033846;28;615;-66
2022/07/22 03:35:29;;;;;;;;;;;;;;;21.27;61.38;101828.50;1033895;28;669;-66
2022/07/22 03:36:20;;;;;;;;;;;;;;;21.27;61.42;101831.19;1032629;28;639;-66
2022/07/22 03:37:10;;;;;;;;;;;;;;;21.27;61.53;101834.78;1033698;28;701;-66
2022/07/22 03:38:02;;;;;;;;;;;;;;;21.26;61.43;101826.78;1028706;28;623;-66
2022/07/22 03:38:52;;;;;;;;;;;;;;;21.27;61.36;101828.50;1033126;28;705;-67
2022/07/22 03:39:42;;;;;;;;;;;;;;;21.27;61.46;101831.19;1033279;28;606;-66
2022/07/22 03:40:33;;;;;;;;;;;;;;;21.26;61.34;101833.06;1033829;28;642;-66
2022/07/22 03:41:23;;;;;;;;;;;;;;;21.28;61.40;101832.91;1033787;28;916;-66
2022/07/22 03:42:14;;;;;;;;;;;;;;;21.26;61.40;101824.91;1033747;28;622;-67
2022/07/22 03:43:04;;;;;;;;;;;;;;;21.27;61.34;101821.22;1029738;28;1062;-66
2022/07/22 03:43:55;;;;;;;;;;;;;;;21.27;61.30;101825.78;1033158;28;635;-66
2022/07/22 03:44:46;;;;;;;;;;;;;;;21.27;61.41;101826.63;1033260;28;681;-66
2022/07/22 03:45:37;;;;;;;;;;;;;;;21.29;61.32;101823.78;1033778;28;630;-66
2022/07/22 03:46:27;;;;;;;;;;;;;;;21.32;61.39;101826.19;1034888;28;1088;-66
2022/07/22 03:47:18;;;;;;;;;;;;;;;21.31;61.21;101828.06;1035936;28;678;-67
2022/07/22 03:48:09;;;;;;;;;;;;;;;21.33;61.41;101825.19;1033116;28;1188;-66
2022/07/22 03:48:59;;;;;;;;;;;;;;;21.33;61.35;101831.47;1032527;28;770;-66
2022/07/22 03:49:50;;;;;;;;;;;;;;;21.33;61.36;101825.19;1033215;28;662;-66
2022/07/22 03:50:40;;;;;;;;;;;;;;;21.32;61.23;101826.19;1033573;28;1205;-66
2022/07/22 03:51:30;;;;;;;;;;;;;;;21.33;61.37;101830.59;1036207;28;659;-66
2022/07/22 03:52:21;;;;;;;;;;;;;;;21.33;61.30;101825.19;1035465;28;654;-66
2022/07/22 03:53:11;;;;;;;;;;;;;;;21.34;61.09;101826.88;1036036;28;560;-66
2022/07/22 03:54:02;;;;;;;;;;;;;;;21.34;61.20;101826.88;1036524;28;706;-66
2022/07/22 03:54:52;;;;;;;;;;;;;;;21.34;61.23;101827.75;1035465;28;615;-66
2022/07/22 03:55:43;;;;;;;;;;;;;;;21.34;61.21;101826.88;1032370;28;781;-66
2022/07/22 03:56:33;;;;;;;;;;;;;;;21.34;61.10;101818.75;1033512;28;661;-66
2022/07/22 03:57:23;;;;;;;;;;;;;;;21.33;61.25;101820.59;1037121;28;678;-66
2022/07/22 03:58:14;;;;;;;;;;;;;;;21.34;61.21;101829.59;1035436;28;615;-66
2022/07/22 03:59:05;;;;;;;;;;;;;;;21.35;61.32;101825.88;1036657;28;634;-66
2022/07/22 03:59:55;;;;;;;;;;;;;;;21.33;61.22;101817.91;1036657;28;694;-66
2022/07/22 04:00:45;;;;;;;;;;;;;;;21.34;61.22;101822.31;1035609;28;778;-66
2022/07/22 04:01:36;;;;;;;;;;;;;;;21.33;61.06;101822.47;1035851;28;1963;-66
2022/07/22 04:02:26;;;;;;;;;;;;;;;21.31;61.03;101822.63;1035987;28;623;-66
2022/07/22 04:03:18;;;;;;;;;;;;;;;21.32;61.17;101823.47;1036631;28;678;-66
2022/07/22 04:04:08;;;;;;;;;;;;;;;21.30;61.20;101823.63;1036660;28;638;-66
2022/07/22 04:04:59;;;;;;;;;;;;;;;21.29;61.18;101821.06;1036703;28;650;-66
2022/07/22 04:05:49;;;;;;;;;;;;;;;21.29;61.27;101824.63;1035883;28;768;-66
2022/07/22 04:06:39;;;;;;;;;;;;;;;21.28;61.05;101817.50;1036120;28;683;-66
2022/07/22 04:07:30;;;;;;;;;;;;;;;21.28;60.95;101816.66;1035314;28;666;-66
2022/07/22 04:08:20;;;;;;;;;;;;;;;21.27;61.08;101825.78;1036109;28;694;-66
2022/07/22 04:09:11;;;;;;;;;;;;;;;21.27;60.94;101815.78;1036244;28;942;-66
2022/07/22 04:10:04;;;;;;;;;;;;;;;21.27;61.07;101823.06;1035405;28;702;-66
2022/07/22 04:10:55;;;;;;;;;;;;;;;21.26;61.28;101824.91;1036641;28;682;-66
2022/07/22 04:11:46;;;;;;;;;;;;;;;21.27;61.01;101817.66;1035437;28;612;-66
2022/07/22 04:12:36;;;;;;;;;;;;;;;21.26;61.17;101826.78;1036059;28;619;-66
2022/07/22 04:13:27;;;;;;;;;;;;;;;21.27;60.95;101823.94;1036115;28;714;-66
2022/07/22 04:14:17;;;;;;;;;;;;;;;21.26;61.14;101826.78;1034871;28;664;-66
2022/07/22 04:15:07;;;;;;;;;;;;;;;21.26;61.06;101822.22;1036616;28;841;-66
2022/07/22 04:15:58;;;;;;;;;;;;;;;21.27;61.04;101814.94;1028029;28;1446;-66
2022/07/22 04:16:48;;;;;;;;;;;;;;;21.27;61.26;101823.94;1031888;28;751;-66
2022/07/22 04:17:39;;;;;;;;;;;;;;;21.29;61.29;101826.50;1032467;28;651;-66
2022/07/22 04:18:29;;;;;;;;;;;;;;;21.29;61.09;101824.63;1033548;28;623;-66
2022/07/22 04:19:20;;;;;;;;;;;;;;;21.28;61.01;101820.22;1033622;28;698;-66
2022/07/22 04:20:10;;;;;;;;;;;;;;;21.27;61.29;101815.78;1028183;28;639;-67
2022/07/22 04:21:00;;;;;;;;;;;;;;;21.26;61.18;101818.66;1028718;28;692;-66
2022/07/22 04:21:51;;;;;;;;;;;;;;;21.26;60.91;101813.22;1033526;28;1888;-66
2022/07/22 04:22:41;;;;;;;;;;;;;;;21.25;61.19;101812.38;1033496;28;617;-66
2022/07/22 04:23:32;;;;;;;;;;;;;;;21.26;61.13;101824.06;1033572;28;635;-66
2022/07/22 04:24:22;;;;;;;;;;;;;;;21.26;61.10;101816.78;1033574;28;643;-66
2022/07/22 04:25:13;;;;;;;;;;;;;;;21.27;61.09;101809.50;1033550;28;627;-65